sensor_id;sensor_type;location;lat;lon;timestamp;P1;durP1;ratioP1;P2;durP2;ratioP2
16113;SDS011;8161;-33.910;151.156;2023-09-18T00:01:25;7.30;;;2.33;;
16113;SDS011;8161;-33.910;151.156;2023-09-18T00:03:54;5.95;;;2.40;;
16113;SDS011;8161;-33.910;151.156;2023-09-18T00:06:21;6.03;;;2.30;;
16113;SDS011;8161;-33.910;151.156;2023-09-18T00:08:49;4.07;;;2.20;;
16113;SDS011;8161;-33.910;151.156;2023-09-18T00:11:16;5.18;;;2.25;;
16113;SDS011;8161;-33.910;151.156;2023-09-18T00:13:44;4.47;;;2.50;;
16113;SDS011;8161;-33.910;151.156;2023-09-18T00:16:11;6.45;;;2.53;;
16113;SDS011;8161;-33.910;151.156;2023-09-18T00:18:38;5.40;;;2.08;;
16113;SDS011;8161;-33.910;151.156;2023-09-18T00:21:06;4.63;;;2.22;;
16113;SDS011;8161;-33.910;151.156;2023-09-18T00:23:36;4.63;;;2.10;;
16113;SDS011;8161;-33.910;151.156;2023-09-18T00:26:03;8.52;;;3.08;;
16113;SDS011;8161;-33.910;151.156;2023-09-18T00:28:30;5.70;;;2.50;;
16113;SDS011;8161;-33.910;151.156;2023-09-18T00:30:58;4.28;;;2.35;;
16113;SDS011;8161;-33.910;151.156;2023-09-18T00:33:25;4.70;;;2.40;;
16113;SDS011;8161;-33.910;151.156;2023-09-18T00:35:52;6.03;;;2.50;;
16113;SDS011;8161;-33.910;151.156;2023-09-18T00:38:19;7.80;;;2.85;;
16113;SDS011;8161;-33.910;151.156;2023-09-18T00:40:46;6.97;;;2.58;;
16113;SDS011;8161;-33.910;151.156;2023-09-18T00:43:13;6.70;;;3.15;;
16113;SDS011;8161;-33.910;151.156;2023-09-18T00:45:44;8.27;;;2.50;;
16113;SDS011;8161;-33.910;151.156;2023-09-18T00:48:14;5.53;;;2.83;;
16113;SDS011;8161;-33.910;151.156;2023-09-18T00:50:45;6.20;;;2.85;;
16113;SDS011;8161;-33.910;151.156;2023-09-18T00:53:17;7.45;;;3.17;;
16113;SDS011;8161;-33.910;151.156;2023-09-18T00:55:48;5.70;;;3.30;;
16113;SDS011;8161;-33.910;151.156;2023-09-18T00:58:18;8.60;;;3.50;;
16113;SDS011;8161;-33.910;151.156;2023-09-18T01:00:45;6.97;;;3.08;;
16113;SDS011;8161;-33.910;151.156;2023-09-18T01:03:16;6.40;;;3.55;;
16113;SDS011;8161;-33.910;151.156;2023-09-18T01:05:44;5.72;;;3.60;;
16113;SDS011;8161;-33.910;151.156;2023-09-18T01:08:11;6.70;;;3.60;;
16113;SDS011;8161;-33.910;151.156;2023-09-18T01:13:23;10.18;;;3.85;;
16113;SDS011;8161;-33.910;151.156;2023-09-18T01:16:16;5.13;;;3.53;;
16113;SDS011;8161;-33.910;151.156;2023-09-18T01:18:51;7.35;;;3.70;;
16113;SDS011;8161;-33.910;151.156;2023-09-18T01:21:21;6.90;;;3.80;;
16113;SDS011;8161;-33.910;151.156;2023-09-18T01:23:48;6.57;;;3.67;;
16113;SDS011;8161;-33.910;151.156;2023-09-18T01:26:17;6.78;;;4.05;;
16113;SDS011;8161;-33.910;151.156;2023-09-18T01:28:44;7.38;;;3.97;;
16113;SDS011;8161;-33.910;151.156;2023-09-18T01:31:20;4.63;;;3.22;;
16113;SDS011;8161;-33.910;151.156;2023-09-18T01:33:47;6.47;;;3.30;;
16113;SDS011;8161;-33.910;151.156;2023-09-18T01:36:16;5.07;;;3.40;;
16113;SDS011;8161;-33.910;151.156;2023-09-18T01:38:44;6.82;;;3.20;;
16113;SDS011;8161;-33.910;151.156;2023-09-18T01:41:13;3.85;;;2.85;;
16113;SDS011;8161;-33.910;151.156;2023-09-18T01:43:40;7.25;;;3.47;;
16113;SDS011;8161;-33.910;151.156;2023-09-18T01:46:07;6.75;;;2.92;;
16113;SDS011;8161;-33.910;151.156;2023-09-18T01:48:34;5.40;;;2.95;;
16113;SDS011;8161;-33.910;151.156;2023-09-18T01:51:02;4.35;;;2.60;;
16113;SDS011;8161;-33.910;151.156;2023-09-18T01:53:29;5.57;;;2.80;;
16113;SDS011;8161;-33.910;151.156;2023-09-18T01:55:59;8.02;;;2.67;;
16113;SDS011;8161;-33.910;151.156;2023-09-18T01:58:26;6.32;;;3.10;;
16113;SDS011;8161;-33.910;151.156;2023-09-18T02:00:53;3.85;;;2.85;;
16113;SDS011;8161;-33.910;151.156;2023-09-18T02:03:20;3.80;;;2.77;;
16113;SDS011;8161;-33.910;151.156;2023-09-18T02:05:47;5.35;;;2.85;;
16113;SDS011;8161;-33.910;151.156;2023-09-18T02:08:14;4.50;;;2.60;;
16113;SDS011;8161;-33.910;151.156;2023-09-18T02:10:41;4.80;;;2.70;;
16113;SDS011;8161;-33.910;151.156;2023-09-18T02:13:08;3.88;;;2.60;;
16113;SDS011;8161;-33.910;151.156;2023-09-18T02:15:37;4.70;;;2.50;;
16113;SDS011;8161;-33.910;151.156;2023-09-18T02:18:05;4.93;;;2.67;;
16113;SDS011;8161;-33.910;151.156;2023-09-18T02:20:39;4.68;;;2.47;;
16113;SDS011;8161;-33.910;151.156;2023-09-18T02:23:07;5.67;;;2.87;;
16113;SDS011;8161;-33.910;151.156;2023-09-18T02:25:34;7.90;;;2.97;;
16113;SDS011;8161;-33.910;151.156;2023-09-18T02:28:01;3.20;;;2.83;;
16113;SDS011;8161;-33.910;151.156;2023-09-18T02:30:28;3.53;;;2.67;;
16113;SDS011;8161;-33.910;151.156;2023-09-18T02:32:55;6.07;;;2.73;;
16113;SDS011;8161;-33.910;151.156;2023-09-18T02:35:23;4.68;;;2.72;;
16113;SDS011;8161;-33.910;151.156;2023-09-18T02:37:50;4.78;;;2.78;;
16113;SDS011;8161;-33.910;151.156;2023-09-18T02:40:17;3.50;;;2.63;;
16113;SDS011;8161;-33.910;151.156;2023-09-18T02:42:48;4.40;;;3.10;;
16113;SDS011;8161;-33.910;151.156;2023-09-18T02:45:24;4.82;;;3.00;;
16113;SDS011;8161;-33.910;151.156;2023-09-18T02:47:54;5.30;;;2.60;;
16113;SDS011;8161;-33.910;151.156;2023-09-18T02:50:24;4.35;;;2.90;;
16113;SDS011;8161;-33.910;151.156;2023-09-18T02:52:54;3.15;;;2.80;;
16113;SDS011;8161;-33.910;151.156;2023-09-18T02:55:21;3.30;;;2.95;;
16113;SDS011;8161;-33.910;151.156;2023-09-18T02:57:48;3.28;;;2.92;;
16113;SDS011;8161;-33.910;151.156;2023-09-18T03:00:15;3.23;;;2.87;;
16113;SDS011;8161;-33.910;151.156;2023-09-18T03:02:43;6.30;;;3.35;;
16113;SDS011;8161;-33.910;151.156;2023-09-18T03:05:10;7.55;;;3.00;;
16113;SDS011;8161;-33.910;151.156;2023-09-18T03:07:37;5.60;;;3.20;;
16113;SDS011;8161;-33.910;151.156;2023-09-18T03:10:04;7.77;;;3.63;;
16113;SDS011;8161;-33.910;151.156;2023-09-18T03:12:31;5.88;;;3.05;;
16113;SDS011;8161;-33.910;151.156;2023-09-18T03:14:59;5.85;;;2.88;;
16113;SDS011;8161;-33.910;151.156;2023-09-18T03:17:26;9.25;;;3.40;;
16113;SDS011;8161;-33.910;151.156;2023-09-18T03:19:53;7.93;;;3.75;;
16113;SDS011;8161;-33.910;151.156;2023-09-18T03:22:20;10.97;;;4.93;;
16113;SDS011;8161;-33.910;151.156;2023-09-18T03:24:47;10.75;;;4.93;;
16113;SDS011;8161;-33.910;151.156;2023-09-18T03:27:15;10.85;;;4.32;;
16113;SDS011;8161;-33.910;151.156;2023-09-18T03:29:42;9.57;;;3.85;;
16113;SDS011;8161;-33.910;151.156;2023-09-18T03:32:09;7.78;;;3.67;;
16113;SDS011;8161;-33.910;151.156;2023-09-18T03:34:38;10.13;;;4.03;;
16113;SDS011;8161;-33.910;151.156;2023-09-18T03:37:05;6.93;;;3.10;;
16113;SDS011;8161;-33.910;151.156;2023-09-18T03:39:33;6.55;;;3.30;;
16113;SDS011;8161;-33.910;151.156;2023-09-18T03:42:03;5.72;;;3.03;;
16113;SDS011;8161;-33.910;151.156;2023-09-18T03:44:30;7.45;;;3.20;;
16113;SDS011;8161;-33.910;151.156;2023-09-18T03:46:58;10.68;;;3.20;;
16113;SDS011;8161;-33.910;151.156;2023-09-18T03:49:29;7.85;;;3.33;;
16113;SDS011;8161;-33.910;151.156;2023-09-18T03:51:56;7.00;;;3.20;;
16113;SDS011;8161;-33.910;151.156;2023-09-18T03:54:23;5.15;;;3.20;;
16113;SDS011;8161;-33.910;151.156;2023-09-18T03:56:50;5.18;;;2.67;;
16113;SDS011;8161;-33.910;151.156;2023-09-18T03:59:17;7.07;;;3.13;;
16113;SDS011;8161;-33.910;151.156;2023-09-18T04:01:45;8.73;;;3.22;;
16113;SDS011;8161;-33.910;151.156;2023-09-18T04:04:12;6.65;;;3.33;;
16113;SDS011;8161;-33.910;151.156;2023-09-18T04:06:43;6.53;;;3.00;;
16113;SDS011;8161;-33.910;151.156;2023-09-18T04:09:11;6.28;;;3.08;;
16113;SDS011;8161;-33.910;151.156;2023-09-18T04:11:40;8.85;;;3.10;;
16113;SDS011;8161;-33.910;151.156;2023-09-18T04:14:07;5.78;;;3.03;;
16113;SDS011;8161;-33.910;151.156;2023-09-18T04:16:34;5.93;;;3.42;;
16113;SDS011;8161;-33.910;151.156;2023-09-18T04:19:02;6.90;;;3.47;;
16113;SDS011;8161;-33.910;151.156;2023-09-18T04:21:30;6.93;;;3.65;;
16113;SDS011;8161;-33.910;151.156;2023-09-18T04:23:57;7.25;;;3.60;;
16113;SDS011;8161;-33.910;151.156;2023-09-18T04:26:25;7.00;;;3.50;;
16113;SDS011;8161;-33.910;151.156;2023-09-18T04:28:59;6.60;;;3.67;;
16113;SDS011;8161;-33.910;151.156;2023-09-18T04:31:27;10.90;;;3.70;;
16113;SDS011;8161;-33.910;151.156;2023-09-18T04:33:55;8.43;;;3.65;;
16113;SDS011;8161;-33.910;151.156;2023-09-18T04:36:23;7.97;;;3.23;;
16113;SDS011;8161;-33.910;151.156;2023-09-18T04:38:50;8.80;;;3.83;;
16113;SDS011;8161;-33.910;151.156;2023-09-18T04:41:18;10.15;;;4.40;;
16113;SDS011;8161;-33.910;151.156;2023-09-18T04:43:45;7.82;;;4.18;;
16113;SDS011;8161;-33.910;151.156;2023-09-18T04:46:12;8.03;;;3.80;;
16113;SDS011;8161;-33.910;151.156;2023-09-18T04:48:39;6.90;;;3.67;;
16113;SDS011;8161;-33.910;151.156;2023-09-18T04:51:06;9.90;;;4.30;;
16113;SDS011;8161;-33.910;151.156;2023-09-18T04:53:34;7.43;;;3.95;;
16113;SDS011;8161;-33.910;151.156;2023-09-18T04:56:02;6.93;;;3.97;;
16113;SDS011;8161;-33.910;151.156;2023-09-18T04:58:30;7.93;;;4.23;;
16113;SDS011;8161;-33.910;151.156;2023-09-18T05:01:02;8.93;;;4.43;;
16113;SDS011;8161;-33.910;151.156;2023-09-18T05:03:33;9.00;;;4.00;;
16113;SDS011;8161;-33.910;151.156;2023-09-18T05:06:01;8.90;;;4.20;;
16113;SDS011;8161;-33.910;151.156;2023-09-18T05:08:31;7.05;;;4.35;;
16113;SDS011;8161;-33.910;151.156;2023-09-18T05:10:58;7.30;;;4.15;;
16113;SDS011;8161;-33.910;151.156;2023-09-18T05:13:26;7.80;;;4.43;;
16113;SDS011;8161;-33.910;151.156;2023-09-18T05:15:53;10.20;;;4.80;;
16113;SDS011;8161;-33.910;151.156;2023-09-18T05:18:20;7.45;;;4.63;;
16113;SDS011;8161;-33.910;151.156;2023-09-18T05:20:47;7.78;;;4.68;;
16113;SDS011;8161;-33.910;151.156;2023-09-18T05:23:14;9.60;;;4.50;;
16113;SDS011;8161;-33.910;151.156;2023-09-18T05:25:42;9.88;;;4.63;;
16113;SDS011;8161;-33.910;151.156;2023-09-18T05:28:09;8.57;;;4.80;;
16113;SDS011;8161;-33.910;151.156;2023-09-18T05:30:36;10.75;;;4.75;;
16113;SDS011;8161;-33.910;151.156;2023-09-18T05:33:07;7.55;;;4.38;;
16113;SDS011;8161;-33.910;151.156;2023-09-18T05:35:35;12.18;;;4.85;;
16113;SDS011;8161;-33.910;151.156;2023-09-18T05:38:03;8.52;;;4.80;;
16113;SDS011;8161;-33.910;151.156;2023-09-18T05:40:30;10.63;;;4.55;;
16113;SDS011;8161;-33.910;151.156;2023-09-18T05:42:58;12.13;;;4.65;;
16113;SDS011;8161;-33.910;151.156;2023-09-18T05:45:25;10.37;;;4.50;;
16113;SDS011;8161;-33.910;151.156;2023-09-18T05:47:53;11.80;;;4.40;;
16113;SDS011;8161;-33.910;151.156;2023-09-18T05:50:28;7.43;;;4.53;;
16113;SDS011;8161;-33.910;151.156;2023-09-18T05:52:57;11.63;;;4.47;;
16113;SDS011;8161;-33.910;151.156;2023-09-18T05:55:35;7.57;;;4.53;;
16113;SDS011;8161;-33.910;151.156;2023-09-18T05:58:02;10.02;;;4.60;;
16113;SDS011;8161;-33.910;151.156;2023-09-18T06:00:30;9.95;;;4.95;;
16113;SDS011;8161;-33.910;151.156;2023-09-18T06:03:02;9.45;;;4.70;;
16113;SDS011;8161;-33.910;151.156;2023-09-18T06:05:31;8.97;;;4.80;;
16113;SDS011;8161;-33.910;151.156;2023-09-18T06:08:00;11.18;;;4.78;;
16113;SDS011;8161;-33.910;151.156;2023-09-18T06:10:27;7.50;;;4.83;;
16113;SDS011;8161;-33.910;151.156;2023-09-18T06:12:54;9.13;;;5.25;;
16113;SDS011;8161;-33.910;151.156;2023-09-18T06:15:21;9.88;;;5.57;;
16113;SDS011;8161;-33.910;151.156;2023-09-18T06:17:48;8.73;;;5.47;;
16113;SDS011;8161;-33.910;151.156;2023-09-18T06:20:16;8.43;;;5.20;;
16113;SDS011;8161;-33.910;151.156;2023-09-18T06:22:43;9.95;;;5.60;;
16113;SDS011;8161;-33.910;151.156;2023-09-18T06:25:13;10.77;;;5.85;;
16113;SDS011;8161;-33.910;151.156;2023-09-18T06:27:40;8.48;;;5.72;;
16113;SDS011;8161;-33.910;151.156;2023-09-18T06:30:07;16.48;;;6.10;;
16113;SDS011;8161;-33.910;151.156;2023-09-18T06:32:34;12.07;;;6.50;;
16113;SDS011;8161;-33.910;151.156;2023-09-18T06:35:02;8.30;;;6.03;;
16113;SDS011;8161;-33.910;151.156;2023-09-18T06:37:32;14.70;;;6.30;;
16113;SDS011;8161;-33.910;151.156;2023-09-18T06:39:59;9.95;;;6.13;;
16113;SDS011;8161;-33.910;151.156;2023-09-18T06:42:29;10.35;;;6.30;;
16113;SDS011;8161;-33.910;151.156;2023-09-18T06:44:56;11.23;;;6.60;;
16113;SDS011;8161;-33.910;151.156;2023-09-18T06:47:24;9.98;;;7.00;;
16113;SDS011;8161;-33.910;151.156;2023-09-18T06:49:51;9.25;;;6.53;;
16113;SDS011;8161;-33.910;151.156;2023-09-18T06:52:18;9.43;;;6.13;;
16113;SDS011;8161;-33.910;151.156;2023-09-18T06:54:46;10.27;;;6.28;;
16113;SDS011;8161;-33.910;151.156;2023-09-18T06:57:13;11.50;;;6.25;;
16113;SDS011;8161;-33.910;151.156;2023-09-18T06:59:40;9.50;;;6.45;;
16113;SDS011;8161;-33.910;151.156;2023-09-18T07:02:07;10.35;;;6.82;;
16113;SDS011;8161;-33.910;151.156;2023-09-18T07:04:35;9.57;;;6.47;;
16113;SDS011;8161;-33.910;151.156;2023-09-18T07:07:02;12.43;;;6.60;;
16113;SDS011;8161;-33.910;151.156;2023-09-18T07:09:30;10.82;;;6.47;;
16113;SDS011;8161;-33.910;151.156;2023-09-18T07:11:57;12.23;;;6.90;;
16113;SDS011;8161;-33.910;151.156;2023-09-18T07:14:24;11.65;;;6.30;;
16113;SDS011;8161;-33.910;151.156;2023-09-18T07:16:52;12.43;;;7.07;;
16113;SDS011;8161;-33.910;151.156;2023-09-18T07:19:19;10.63;;;6.80;;
16113;SDS011;8161;-33.910;151.156;2023-09-18T07:21:46;16.48;;;7.32;;
16113;SDS011;8161;-33.910;151.156;2023-09-18T07:24:15;9.15;;;6.55;;
16113;SDS011;8161;-33.910;151.156;2023-09-18T07:26:45;8.93;;;6.50;;
16113;SDS011;8161;-33.910;151.156;2023-09-18T07:29:14;12.48;;;6.80;;
16113;SDS011;8161;-33.910;151.156;2023-09-18T07:31:42;11.23;;;6.75;;
16113;SDS011;8161;-33.910;151.156;2023-09-18T07:34:10;14.15;;;6.88;;
16113;SDS011;8161;-33.910;151.156;2023-09-18T07:36:37;12.40;;;6.57;;
16113;SDS011;8161;-33.910;151.156;2023-09-18T07:39:07;9.33;;;6.37;;
16113;SDS011;8161;-33.910;151.156;2023-09-18T07:41:34;11.55;;;6.40;;
16113;SDS011;8161;-33.910;151.156;2023-09-18T07:44:01;12.80;;;6.78;;
16113;SDS011;8161;-33.910;151.156;2023-09-18T07:46:29;11.48;;;6.50;;
16113;SDS011;8161;-33.910;151.156;2023-09-18T07:48:56;12.20;;;6.43;;
16113;SDS011;8161;-33.910;151.156;2023-09-18T07:51:23;11.40;;;6.57;;
16113;SDS011;8161;-33.910;151.156;2023-09-18T07:53:50;12.18;;;6.95;;
16113;SDS011;8161;-33.910;151.156;2023-09-18T07:56:17;9.40;;;6.63;;
16113;SDS011;8161;-33.910;151.156;2023-09-18T07:58:44;10.00;;;6.30;;
16113;SDS011;8161;-33.910;151.156;2023-09-18T08:01:12;13.15;;;6.93;;
16113;SDS011;8161;-33.910;151.156;2023-09-18T08:03:41;11.73;;;6.68;;
16113;SDS011;8161;-33.910;151.156;2023-09-18T08:06:09;12.10;;;7.20;;
16113;SDS011;8161;-33.910;151.156;2023-09-18T08:08:37;16.97;;;7.23;;
16113;SDS011;8161;-33.910;151.156;2023-09-18T08:11:08;12.15;;;6.55;;
16113;SDS011;8161;-33.910;151.156;2023-09-18T08:13:36;12.15;;;6.93;;
16113;SDS011;8161;-33.910;151.156;2023-09-18T08:16:06;13.52;;;7.20;;
16113;SDS011;8161;-33.910;151.156;2023-09-18T08:18:34;13.48;;;7.43;;
16113;SDS011;8161;-33.910;151.156;2023-09-18T08:21:01;12.30;;;7.47;;
16113;SDS011;8161;-33.910;151.156;2023-09-18T08:23:30;13.65;;;6.97;;
16113;SDS011;8161;-33.910;151.156;2023-09-18T08:25:58;11.88;;;7.75;;
16113;SDS011;8161;-33.910;151.156;2023-09-18T08:28:26;12.50;;;7.47;;
16113;SDS011;8161;-33.910;151.156;2023-09-18T08:30:53;12.85;;;7.15;;
16113;SDS011;8161;-33.910;151.156;2023-09-18T08:33:21;12.20;;;7.38;;
16113;SDS011;8161;-33.910;151.156;2023-09-18T08:35:51;17.98;;;8.13;;
16113;SDS011;8161;-33.910;151.156;2023-09-18T08:38:18;11.63;;;8.20;;
16113;SDS011;8161;-33.910;151.156;2023-09-18T08:40:45;14.05;;;9.05;;
16113;SDS011;8161;-33.910;151.156;2023-09-18T08:43:14;12.98;;;8.00;;
16113;SDS011;8161;-33.910;151.156;2023-09-18T08:45:52;11.43;;;7.50;;
16113;SDS011;8161;-33.910;151.156;2023-09-18T08:48:20;14.52;;;7.60;;
16113;SDS011;8161;-33.910;151.156;2023-09-18T08:50:48;12.57;;;7.60;;
16113;SDS011;8161;-33.910;151.156;2023-09-18T08:53:15;11.40;;;7.70;;
16113;SDS011;8161;-33.910;151.156;2023-09-18T08:55:42;12.02;;;7.50;;
16113;SDS011;8161;-33.910;151.156;2023-09-18T08:58:09;12.43;;;7.88;;
16113;SDS011;8161;-33.910;151.156;2023-09-18T09:00:38;14.98;;;8.02;;
16113;SDS011;8161;-33.910;151.156;2023-09-18T09:03:05;12.73;;;7.60;;
16113;SDS011;8161;-33.910;151.156;2023-09-18T09:05:32;13.32;;;7.97;;
16113;SDS011;8161;-33.910;151.156;2023-09-18T09:07:59;12.48;;;7.97;;
16113;SDS011;8161;-33.910;151.156;2023-09-18T09:10:27;14.10;;;7.65;;
16113;SDS011;8161;-33.910;151.156;2023-09-18T09:12:56;15.27;;;7.80;;
16113;SDS011;8161;-33.910;151.156;2023-09-18T09:15:28;10.77;;;7.72;;
16113;SDS011;8161;-33.910;151.156;2023-09-18T09:18:05;13.30;;;8.23;;
16113;SDS011;8161;-33.910;151.156;2023-09-18T09:20:35;12.60;;;7.93;;
16113;SDS011;8161;-33.910;151.156;2023-09-18T09:23:02;14.00;;;8.10;;
16113;SDS011;8161;-33.910;151.156;2023-09-18T09:25:32;13.20;;;7.80;;
16113;SDS011;8161;-33.910;151.156;2023-09-18T09:28:04;12.90;;;8.80;;
16113;SDS011;8161;-33.910;151.156;2023-09-18T09:30:34;15.13;;;8.10;;
16113;SDS011;8161;-33.910;151.156;2023-09-18T09:33:02;15.05;;;7.70;;
16113;SDS011;8161;-33.910;151.156;2023-09-18T09:35:32;19.50;;;8.15;;
16113;SDS011;8161;-33.910;151.156;2023-09-18T09:38:01;17.35;;;7.72;;
16113;SDS011;8161;-33.910;151.156;2023-09-18T09:40:41;13.85;;;7.22;;
16113;SDS011;8161;-33.910;151.156;2023-09-18T09:43:13;15.30;;;7.55;;
16113;SDS011;8161;-33.910;151.156;2023-09-18T09:45:45;16.30;;;7.90;;
16113;SDS011;8161;-33.910;151.156;2023-09-18T09:48:13;10.27;;;7.30;;
16113;SDS011;8161;-33.910;151.156;2023-09-18T09:50:44;11.30;;;7.40;;
16113;SDS011;8161;-33.910;151.156;2023-09-18T09:53:14;12.93;;;7.43;;
16113;SDS011;8161;-33.910;151.156;2023-09-18T09:55:41;13.45;;;7.30;;
16113;SDS011;8161;-33.910;151.156;2023-09-18T09:58:09;19.92;;;7.70;;
16113;SDS011;8161;-33.910;151.156;2023-09-18T10:00:49;14.38;;;7.80;;
16113;SDS011;8161;-33.910;151.156;2023-09-18T10:03:19;14.75;;;7.75;;
16113;SDS011;8161;-33.910;151.156;2023-09-18T10:05:49;12.68;;;7.78;;
16113;SDS011;8161;-33.910;151.156;2023-09-18T10:08:24;11.07;;;7.13;;
16113;SDS011;8161;-33.910;151.156;2023-09-18T10:11:00;15.35;;;6.97;;
16113;SDS011;8161;-33.910;151.156;2023-09-18T10:16:21;13.75;;;7.90;;
16113;SDS011;8161;-33.910;151.156;2023-09-18T10:24:15;15.52;;;7.85;;
16113;SDS011;8161;-33.910;151.156;2023-09-18T10:26:55;12.77;;;8.00;;
16113;SDS011;8161;-33.910;151.156;2023-09-18T10:29:28;14.57;;;7.93;;
16113;SDS011;8161;-33.910;151.156;2023-09-18T10:31:58;13.65;;;7.95;;
16113;SDS011;8161;-33.910;151.156;2023-09-18T10:34:25;13.13;;;7.95;;
16113;SDS011;8161;-33.910;151.156;2023-09-18T10:36:55;13.10;;;7.72;;
16113;SDS011;8161;-33.910;151.156;2023-09-18T10:39:24;14.13;;;8.05;;
16113;SDS011;8161;-33.910;151.156;2023-09-18T10:41:53;14.13;;;8.03;;
16113;SDS011;8161;-33.910;151.156;2023-09-18T10:44:28;11.97;;;7.97;;
16113;SDS011;8161;-33.910;151.156;2023-09-18T10:46:58;18.92;;;8.25;;
16113;SDS011;8161;-33.910;151.156;2023-09-18T10:49:30;14.43;;;8.43;;
16113;SDS011;8161;-33.910;151.156;2023-09-18T10:51:57;14.82;;;8.40;;
16113;SDS011;8161;-33.910;151.156;2023-09-18T10:54:27;13.15;;;7.90;;
16113;SDS011;8161;-33.910;151.156;2023-09-18T10:56:58;13.32;;;8.50;;
16113;SDS011;8161;-33.910;151.156;2023-09-18T10:59:27;14.70;;;8.27;;
16113;SDS011;8161;-33.910;151.156;2023-09-18T11:01:56;14.80;;;8.30;;
16113;SDS011;8161;-33.910;151.156;2023-09-18T11:04:31;15.27;;;8.52;;
16113;SDS011;8161;-33.910;151.156;2023-09-18T11:09:27;18.67;;;8.43;;
16113;SDS011;8161;-33.910;151.156;2023-09-18T11:14:48;12.37;;;8.63;;
16113;SDS011;8161;-33.910;151.156;2023-09-18T11:22:37;18.10;;;9.32;;
16113;SDS011;8161;-33.910;151.156;2023-09-18T11:27:53;13.50;;;8.90;;
16113;SDS011;8161;-33.910;151.156;2023-09-18T11:30:21;15.00;;;8.63;;
16113;SDS011;8161;-33.910;151.156;2023-09-18T11:32:52;15.80;;;8.87;;
16113;SDS011;8161;-33.910;151.156;2023-09-18T11:35:21;16.75;;;8.88;;
16113;SDS011;8161;-33.910;151.156;2023-09-18T11:38:02;15.98;;;8.95;;
16113;SDS011;8161;-33.910;151.156;2023-09-18T11:40:32;13.05;;;8.65;;
16113;SDS011;8161;-33.910;151.156;2023-09-18T11:45:57;15.98;;;9.38;;
16113;SDS011;8161;-33.910;151.156;2023-09-18T11:48:31;15.30;;;9.23;;
16113;SDS011;8161;-33.910;151.156;2023-09-18T11:51:01;16.60;;;8.60;;
16113;SDS011;8161;-33.910;151.156;2023-09-18T11:53:33;16.48;;;9.52;;
16113;SDS011;8161;-33.910;151.156;2023-09-18T11:56:02;15.60;;;9.23;;
16113;SDS011;8161;-33.910;151.156;2023-09-18T11:58:29;15.63;;;9.57;;
16113;SDS011;8161;-33.910;151.156;2023-09-18T12:00:56;16.95;;;9.65;;
16113;SDS011;8161;-33.910;151.156;2023-09-18T12:03:24;17.98;;;9.60;;
16113;SDS011;8161;-33.910;151.156;2023-09-18T12:05:58;17.50;;;9.90;;
16113;SDS011;8161;-33.910;151.156;2023-09-18T12:08:35;15.52;;;9.60;;
16113;SDS011;8161;-33.910;151.156;2023-09-18T12:11:05;17.27;;;10.13;;
16113;SDS011;8161;-33.910;151.156;2023-09-18T12:13:32;17.67;;;9.68;;
16113;SDS011;8161;-33.910;151.156;2023-09-18T12:16:00;16.10;;;10.27;;
16113;SDS011;8161;-33.910;151.156;2023-09-18T12:18:34;18.40;;;10.02;;
16113;SDS011;8161;-33.910;151.156;2023-09-18T12:21:05;15.53;;;9.73;;
16113;SDS011;8161;-33.910;151.156;2023-09-18T12:23:39;15.18;;;9.23;;
16113;SDS011;8161;-33.910;151.156;2023-09-18T12:26:12;15.87;;;9.13;;
16113;SDS011;8161;-33.910;151.156;2023-09-18T12:28:40;18.67;;;10.52;;
16113;SDS011;8161;-33.910;151.156;2023-09-18T12:31:12;17.35;;;9.73;;
16113;SDS011;8161;-33.910;151.156;2023-09-18T12:33:40;14.90;;;9.50;;
16113;SDS011;8161;-33.910;151.156;2023-09-18T12:36:13;13.85;;;9.90;;
16113;SDS011;8161;-33.910;151.156;2023-09-18T12:38:55;18.75;;;9.98;;
16113;SDS011;8161;-33.910;151.156;2023-09-18T12:41:26;16.80;;;9.68;;
16113;SDS011;8161;-33.910;151.156;2023-09-18T12:43:57;15.68;;;9.63;;
16113;SDS011;8161;-33.910;151.156;2023-09-18T12:46:24;14.07;;;9.70;;
16113;SDS011;8161;-33.910;151.156;2023-09-18T12:48:51;15.88;;;9.60;;
16113;SDS011;8161;-33.910;151.156;2023-09-18T12:51:28;15.60;;;9.60;;
16113;SDS011;8161;-33.910;151.156;2023-09-18T12:54:02;16.40;;;9.80;;
16113;SDS011;8161;-33.910;151.156;2023-09-18T12:56:32;16.40;;;9.65;;
16113;SDS011;8161;-33.910;151.156;2023-09-18T12:58:59;17.55;;;10.48;;
16113;SDS011;8161;-33.910;151.156;2023-09-18T13:01:26;16.87;;;9.80;;
16113;SDS011;8161;-33.910;151.156;2023-09-18T13:03:53;18.13;;;10.25;;
16113;SDS011;8161;-33.910;151.156;2023-09-18T13:06:31;17.92;;;10.55;;
16113;SDS011;8161;-33.910;151.156;2023-09-18T13:11:52;16.75;;;10.38;;
16113;SDS011;8161;-33.910;151.156;2023-09-18T13:14:27;14.93;;;9.88;;
16113;SDS011;8161;-33.910;151.156;2023-09-18T13:17:00;16.88;;;10.40;;
16113;SDS011;8161;-33.910;151.156;2023-09-18T13:19:30;16.58;;;9.93;;
16113;SDS011;8161;-33.910;151.156;2023-09-18T13:21:58;16.63;;;10.23;;
16113;SDS011;8161;-33.910;151.156;2023-09-18T13:24:26;16.98;;;10.35;;
16113;SDS011;8161;-33.910;151.156;2023-09-18T13:26:54;17.20;;;10.00;;
16113;SDS011;8161;-33.910;151.156;2023-09-18T13:29:23;16.52;;;10.55;;
16113;SDS011;8161;-33.910;151.156;2023-09-18T13:31:51;17.42;;;10.00;;
16113;SDS011;8161;-33.910;151.156;2023-09-18T13:34:18;14.88;;;10.65;;
16113;SDS011;8161;-33.910;151.156;2023-09-18T13:36:46;17.70;;;10.70;;
16113;SDS011;8161;-33.910;151.156;2023-09-18T13:39:13;17.88;;;10.32;;
16113;SDS011;8161;-33.910;151.156;2023-09-18T13:41:44;17.50;;;10.48;;
16113;SDS011;8161;-33.910;151.156;2023-09-18T13:44:11;16.13;;;10.55;;
16113;SDS011;8161;-33.910;151.156;2023-09-18T13:46:38;16.20;;;10.27;;
16113;SDS011;8161;-33.910;151.156;2023-09-18T13:49:06;15.97;;;9.93;;
16113;SDS011;8161;-33.910;151.156;2023-09-18T13:51:33;18.02;;;10.23;;
16113;SDS011;8161;-33.910;151.156;2023-09-18T13:54:01;16.23;;;10.07;;
16113;SDS011;8161;-33.910;151.156;2023-09-18T13:56:29;16.80;;;10.40;;
16113;SDS011;8161;-33.910;151.156;2023-09-18T13:58:56;15.05;;;10.48;;
16113;SDS011;8161;-33.910;151.156;2023-09-18T14:01:27;15.07;;;10.07;;
16113;SDS011;8161;-33.910;151.156;2023-09-18T14:03:55;18.60;;;10.77;;
16113;SDS011;8161;-33.910;151.156;2023-09-18T14:06:22;15.57;;;10.75;;
16113;SDS011;8161;-33.910;151.156;2023-09-18T14:08:50;19.02;;;10.35;;
16113;SDS011;8161;-33.910;151.156;2023-09-18T14:11:17;15.57;;;10.00;;
16113;SDS011;8161;-33.910;151.156;2023-09-18T14:13:44;14.77;;;10.57;;
16113;SDS011;8161;-33.910;151.156;2023-09-18T14:16:13;16.17;;;10.40;;
16113;SDS011;8161;-33.910;151.156;2023-09-18T14:18:40;15.00;;;10.10;;
16113;SDS011;8161;-33.910;151.156;2023-09-18T14:21:08;18.85;;;10.70;;
16113;SDS011;8161;-33.910;151.156;2023-09-18T14:23:35;16.65;;;10.93;;
16113;SDS011;8161;-33.910;151.156;2023-09-18T14:26:02;17.02;;;10.30;;
16113;SDS011;8161;-33.910;151.156;2023-09-18T14:28:31;16.25;;;10.00;;
16113;SDS011;8161;-33.910;151.156;2023-09-18T14:30:58;17.00;;;11.10;;
16113;SDS011;8161;-33.910;151.156;2023-09-18T14:33:31;18.95;;;10.57;;
16113;SDS011;8161;-33.910;151.156;2023-09-18T14:35:59;16.25;;;10.82;;
16113;SDS011;8161;-33.910;151.156;2023-09-18T14:38:26;15.43;;;9.77;;
16113;SDS011;8161;-33.910;151.156;2023-09-18T14:40:56;16.73;;;10.25;;
16113;SDS011;8161;-33.910;151.156;2023-09-18T14:43:28;15.02;;;10.25;;
16113;SDS011;8161;-33.910;151.156;2023-09-18T14:45:55;18.88;;;10.93;;
16113;SDS011;8161;-33.910;151.156;2023-09-18T14:48:22;16.13;;;10.77;;
16113;SDS011;8161;-33.910;151.156;2023-09-18T14:50:56;19.53;;;10.20;;
16113;SDS011;8161;-33.910;151.156;2023-09-18T14:53:24;16.95;;;10.52;;